Terminal Aerodrome Forecast
Issued by NWS Topeka, KS

Home | Current Version | Previous Version | Graphics & Text | Print | Product List | Glossary On
Versions: 1 2 3 4 5 6 7 8 9 10 11 12 13 14 15 16 17
000
FTUS43 KTOP 171725
TAFTOP
TAF
KTOP 171725Z 1718/1818 18012G22KT P6SM BKN020
     FM171900 19012G25KT P6SM FEW020
     FM172300 21006KT P6SM SCT200
     FM180400 32005KT P6SM SCT200
     FM180800 34020G30KT P6SM VCSH OVC015=

USA.gov is the U.S. government's official web portal to all federal, state and local government web resources and services.